sensor_id;sensor_type;location;lat;lon;timestamp;pressure;altitude;pressure_sealevel;temperature;humidity
23321;BME280;33376;51.306;4.752;2023-12-14T00:00:10;101689.78;;;8.01;100.00
23321;BME280;33376;51.306;4.752;2023-12-14T00:02:35;101687.97;;;8.03;100.00
23321;BME280;33376;51.306;4.752;2023-12-14T00:05:00;101683.25;;;7.85;100.00
23321;BME280;33376;51.306;4.752;2023-12-14T00:07:26;101698.09;;;7.89;100.00
23321;BME280;33376;51.306;4.752;2023-12-14T00:09:51;101701.09;;;7.77;100.00
23321;BME280;33376;51.306;4.752;2023-12-14T00:12:16;101717.44;;;7.61;100.00
23321;BME280;33376;51.306;4.752;2023-12-14T00:14:42;101734.22;;;7.58;100.00
23321;BME280;33376;51.306;4.752;2023-12-14T00:17:07;101741.19;;;7.61;100.00
23321;BME280;33376;51.306;4.752;2023-12-14T00:19:32;101747.56;;;7.52;100.00
23321;BME280;33376;51.306;4.752;2023-12-14T00:21:57;101757.34;;;7.48;100.00
23321;BME280;33376;51.306;4.752;2023-12-14T00:24:23;101775.94;;;7.44;100.00
23321;BME280;33376;51.306;4.752;2023-12-14T00:26:48;101776.94;;;7.40;100.00
23321;BME280;33376;51.306;4.752;2023-12-14T00:29:13;101784.88;;;7.40;100.00
23321;BME280;33376;51.306;4.752;2023-12-14T00:31:39;101790.41;;;7.29;100.00
23321;BME280;33376;51.306;4.752;2023-12-14T00:34:04;101796.72;;;7.24;100.00
23321;BME280;33376;51.306;4.752;2023-12-14T00:36:29;101797.56;;;7.24;100.00
23321;BME280;33376;51.306;4.752;2023-12-14T00:38:54;101804.03;;;7.13;100.00
23321;BME280;33376;51.306;4.752;2023-12-14T00:41:20;101818.28;;;7.06;100.00
23321;BME280;33376;51.306;4.752;2023-12-14T00:43:46;101832.25;;;7.09;100.00
23321;BME280;33376;51.306;4.752;2023-12-14T00:46:11;101844.63;;;7.06;100.00
23321;BME280;33376;51.306;4.752;2023-12-14T00:48:36;101857.91;;;7.03;100.00
23321;BME280;33376;51.306;4.752;2023-12-14T00:51:02;101871.31;;;6.94;100.00
23321;BME280;33376;51.306;4.752;2023-12-14T00:53:27;101872.88;;;7.01;100.00
23321;BME280;33376;51.306;4.752;2023-12-14T00:55:52;101884.53;;;6.91;100.00
23321;BME280;33376;51.306;4.752;2023-12-14T00:58:17;101888.31;;;6.81;100.00
23321;BME280;33376;51.306;4.752;2023-12-14T01:00:43;101898.72;;;6.87;100.00
23321;BME280;33376;51.306;4.752;2023-12-14T01:03:08;101918.97;;;6.85;100.00
23321;BME280;33376;51.306;4.752;2023-12-14T01:05:33;101940.22;;;6.77;100.00
23321;BME280;33376;51.306;4.752;2023-12-14T01:07:59;101948.22;;;6.73;100.00
23321;BME280;33376;51.306;4.752;2023-12-14T01:10:24;101958.03;;;6.66;100.00
23321;BME280;33376;51.306;4.752;2023-12-14T01:12:49;101966.53;;;6.79;100.00
23321;BME280;33376;51.306;4.752;2023-12-14T01:15:15;101977.16;;;6.76;100.00
23321;BME280;33376;51.306;4.752;2023-12-14T01:17:40;101982.59;;;6.68;100.00
23321;BME280;33376;51.306;4.752;2023-12-14T01:20:06;101985.28;;;6.65;100.00
23321;BME280;33376;51.306;4.752;2023-12-14T01:22:32;101984.38;;;6.66;100.00
23321;BME280;33376;51.306;4.752;2023-12-14T01:24:57;101990.44;;;6.71;100.00
23321;BME280;33376;51.306;4.752;2023-12-14T01:27:22;101989.56;;;6.71;100.00
23321;BME280;33376;51.306;4.752;2023-12-14T01:29:47;101984.31;;;6.69;100.00
23321;BME280;33376;51.306;4.752;2023-12-14T01:32:13;101988.53;;;6.78;100.00
23321;BME280;33376;51.306;4.752;2023-12-14T01:34:38;101997.47;;;6.71;100.00
23321;BME280;33376;51.306;4.752;2023-12-14T01:37:04;102004.31;;;6.79;100.00
23321;BME280;33376;51.306;4.752;2023-12-14T01:39:29;101989.41;;;6.77;100.00
23321;BME280;33376;51.306;4.752;2023-12-14T01:41:54;101987.59;;;6.80;100.00
23321;BME280;33376;51.306;4.752;2023-12-14T01:44:20;101987.69;;;6.76;100.00
23321;BME280;33376;51.306;4.752;2023-12-14T01:46:45;101971.88;;;6.76;100.00
23321;BME280;33376;51.306;4.752;2023-12-14T01:49:11;101976.41;;;6.69;100.00
23321;BME280;33376;51.306;4.752;2023-12-14T01:51:36;101978.22;;;6.66;100.00
23321;BME280;33376;51.306;4.752;2023-12-14T01:54:01;101976.47;;;6.66;100.00
23321;BME280;33376;51.306;4.752;2023-12-14T01:56:26;101975.47;;;6.73;100.00
23321;BME280;33376;51.306;4.752;2023-12-14T01:58:52;101972.31;;;6.55;100.00
23321;BME280;33376;51.306;4.752;2023-12-14T02:01:22;101976.94;;;6.44;100.00
23321;BME280;33376;51.306;4.752;2023-12-14T02:03:51;101975.13;;;6.47;100.00
23321;BME280;33376;51.306;4.752;2023-12-14T02:06:17;101966.50;;;6.39;100.00
23321;BME280;33376;51.306;4.752;2023-12-14T02:08:42;101963.78;;;6.42;100.00
23321;BME280;33376;51.306;4.752;2023-12-14T02:11:08;101962.84;;;6.45;100.00
23321;BME280;33376;51.306;4.752;2023-12-14T02:13:33;101956.63;;;6.49;100.00
23321;BME280;33376;51.306;4.752;2023-12-14T02:15:58;101961.09;;;6.45;100.00
23321;BME280;33376;51.306;4.752;2023-12-14T02:18:24;101952.47;;;6.37;100.00
23321;BME280;33376;51.306;4.752;2023-12-14T02:20:49;101956.97;;;6.32;100.00
23321;BME280;33376;51.306;4.752;2023-12-14T02:23:14;101956.94;;;6.34;100.00
23321;BME280;33376;51.306;4.752;2023-12-14T02:25:39;101947.50;;;6.24;100.00
23321;BME280;33376;51.306;4.752;2023-12-14T02:28:05;101936.09;;;6.23;100.00
23321;BME280;33376;51.306;4.752;2023-12-14T02:30:30;101931.78;;;6.18;100.00
23321;BME280;33376;51.306;4.752;2023-12-14T02:32:55;101910.81;;;6.13;100.00
23321;BME280;33376;51.306;4.752;2023-12-14T02:35:21;101896.97;;;6.04;100.00
23321;BME280;33376;51.306;4.752;2023-12-14T02:37:47;101887.22;;;6.09;100.00
23321;BME280;33376;51.306;4.752;2023-12-14T02:40:13;101869.66;;;6.09;100.00
23321;BME280;33376;51.306;4.752;2023-12-14T02:42:38;101852.28;;;6.01;100.00
23321;BME280;33376;51.306;4.752;2023-12-14T02:45:03;101836.28;;;6.10;100.00
23321;BME280;33376;51.306;4.752;2023-12-14T02:47:29;101821.41;;;6.09;100.00
23321;BME280;33376;51.306;4.752;2023-12-14T02:49:55;101807.44;;;6.05;100.00
23321;BME280;33376;51.306;4.752;2023-12-14T02:52:20;101786.34;;;6.07;100.00
23321;BME280;33376;51.306;4.752;2023-12-14T02:54:45;101760.00;;;6.07;100.00
23321;BME280;33376;51.306;4.752;2023-12-14T02:57:10;101741.69;;;6.02;100.00
23321;BME280;33376;51.306;4.752;2023-12-14T02:59:36;101721.66;;;5.97;100.00
23321;BME280;33376;51.306;4.752;2023-12-14T03:02:01;101695.97;;;6.06;100.00
23321;BME280;33376;51.306;4.752;2023-12-14T03:04:26;101681.22;;;5.99;100.00
23321;BME280;33376;51.306;4.752;2023-12-14T03:06:52;101647.06;;;5.96;100.00
23321;BME280;33376;51.306;4.752;2023-12-14T03:09:17;101623.34;;;5.97;100.00
23321;BME280;33376;51.306;4.752;2023-12-14T03:11:44;101603.72;;;6.11;100.00
23321;BME280;33376;51.306;4.752;2023-12-14T03:14:09;101587.28;;;6.01;100.00
23321;BME280;33376;51.306;4.752;2023-12-14T03:16:34;101566.41;;;5.95;100.00
23321;BME280;33376;51.306;4.752;2023-12-14T03:19:00;101553.06;;;6.01;100.00
23321;BME280;33376;51.306;4.752;2023-12-14T03:21:26;101536.38;;;6.02;100.00
23321;BME280;33376;51.306;4.752;2023-12-14T03:23:51;101521.59;;;5.97;100.00
23321;BME280;33376;51.306;4.752;2023-12-14T03:26:17;101508.50;;;5.95;100.00
23321;BME280;33376;51.306;4.752;2023-12-14T03:28:42;101487.28;;;6.01;100.00
23321;BME280;33376;51.306;4.752;2023-12-14T03:31:09;101471.47;;;6.01;100.00
23321;BME280;33376;51.306;4.752;2023-12-14T03:33:35;101460.31;;;5.91;100.00
23321;BME280;33376;51.306;4.752;2023-12-14T03:36:01;101452.31;;;5.96;100.00
23321;BME280;33376;51.306;4.752;2023-12-14T03:38:27;101449.00;;;5.88;100.00
23321;BME280;33376;51.306;4.752;2023-12-14T03:40:52;101458.44;;;5.97;100.00
23321;BME280;33376;51.306;4.752;2023-12-14T03:43:18;101462.59;;;6.05;100.00
23321;BME280;33376;51.306;4.752;2023-12-14T03:45:43;101453.19;;;5.97;100.00
23321;BME280;33376;51.306;4.752;2023-12-14T03:48:08;101448.00;;;5.93;100.00
23321;BME280;33376;51.306;4.752;2023-12-14T03:50:33;101445.50;;;5.87;100.00
23321;BME280;33376;51.306;4.752;2023-12-14T03:52:59;101446.25;;;5.92;100.00
23321;BME280;33376;51.306;4.752;2023-12-14T03:55:24;101448.00;;;5.93;100.00
23321;BME280;33376;51.306;4.752;2023-12-14T03:57:50;101453.13;;;5.98;100.00
23321;BME280;33376;51.306;4.752;2023-12-14T04:00:15;101453.25;;;5.93;100.00
23321;BME280;33376;51.306;4.752;2023-12-14T04:02:40;101463.78;;;5.93;100.00
23321;BME280;33376;51.306;4.752;2023-12-14T04:05:06;101457.63;;;5.94;100.00
23321;BME280;33376;51.306;4.752;2023-12-14T04:07:32;101468.06;;;5.97;100.00
23321;BME280;33376;51.306;4.752;2023-12-14T04:09:57;101472.63;;;5.91;100.00
23321;BME280;33376;51.306;4.752;2023-12-14T04:12:22;101482.94;;;5.98;100.00
23321;BME280;33376;51.306;4.752;2023-12-14T04:14:48;101498.88;;;5.92;100.00
23321;BME280;33376;51.306;4.752;2023-12-14T04:17:13;101495.41;;;5.90;100.00
23321;BME280;33376;51.306;4.752;2023-12-14T04:19:39;101498.09;;;5.89;100.00
23321;BME280;33376;51.306;4.752;2023-12-14T04:22:04;101511.28;;;5.87;100.00
23321;BME280;33376;51.306;4.752;2023-12-14T04:24:29;101513.00;;;5.90;100.00
23321;BME280;33376;51.306;4.752;2023-12-14T04:26:55;101516.59;;;5.86;100.00
23321;BME280;33376;51.306;4.752;2023-12-14T04:29:21;101523.50;;;5.91;100.00
23321;BME280;33376;51.306;4.752;2023-12-14T04:31:46;101524.38;;;5.90;100.00
23321;BME280;33376;51.306;4.752;2023-12-14T04:34:11;101534.00;;;5.91;100.00
23321;BME280;33376;51.306;4.752;2023-12-14T04:36:40;101536.72;;;5.88;100.00
23321;BME280;33376;51.306;4.752;2023-12-14T04:39:08;101555.88;;;5.95;100.00
23321;BME280;33376;51.306;4.752;2023-12-14T04:41:33;101552.50;;;5.88;100.00
23321;BME280;33376;51.306;4.752;2023-12-14T04:43:58;101555.16;;;5.88;100.00
23321;BME280;33376;51.306;4.752;2023-12-14T04:46:24;101570.91;;;5.90;100.00
23321;BME280;33376;51.306;4.752;2023-12-14T04:48:52;101577.84;;;5.92;100.00
23321;BME280;33376;51.306;4.752;2023-12-14T04:51:19;101591.06;;;5.89;100.00
23321;BME280;33376;51.306;4.752;2023-12-14T04:53:44;101590.13;;;5.93;100.00
23321;BME280;33376;51.306;4.752;2023-12-14T04:56:10;101597.03;;;5.97;100.00
23321;BME280;33376;51.306;4.752;2023-12-14T04:58:35;101605.91;;;5.93;100.00
23321;BME280;33376;51.306;4.752;2023-12-14T05:01:00;101611.03;;;6.00;100.00
23321;BME280;33376;51.306;4.752;2023-12-14T05:03:26;101620.75;;;5.96;100.00
23321;BME280;33376;51.306;4.752;2023-12-14T05:05:51;101627.84;;;5.92;100.00
23321;BME280;33376;51.306;4.752;2023-12-14T05:08:16;101636.69;;;5.90;100.00
23321;BME280;33376;51.306;4.752;2023-12-14T05:10:41;101649.88;;;5.88;100.00
23321;BME280;33376;51.306;4.752;2023-12-14T05:13:07;101661.25;;;5.89;100.00
23321;BME280;33376;51.306;4.752;2023-12-14T05:15:32;101663.81;;;5.92;100.00
23321;BME280;33376;51.306;4.752;2023-12-14T05:17:57;101680.47;;;5.92;100.00
23321;BME280;33376;51.306;4.752;2023-12-14T05:20:23;101693.56;;;5.95;100.00
23321;BME280;33376;51.306;4.752;2023-12-14T05:22:48;101695.41;;;5.92;100.00
23321;BME280;33376;51.306;4.752;2023-12-14T05:25:13;101699.78;;;5.93;100.00
23321;BME280;33376;51.306;4.752;2023-12-14T05:27:39;101700.66;;;5.92;100.00
23321;BME280;33376;51.306;4.752;2023-12-14T05:30:05;101705.00;;;5.94;100.00
23321;BME280;33376;51.306;4.752;2023-12-14T05:32:30;101717.38;;;5.91;100.00
23321;BME280;33376;51.306;4.752;2023-12-14T05:34:56;101714.69;;;5.92;100.00
23321;BME280;33376;51.306;4.752;2023-12-14T05:37:21;101719.13;;;5.90;100.00
23321;BME280;33376;51.306;4.752;2023-12-14T05:39:46;101724.41;;;5.89;100.00
23321;BME280;33376;51.306;4.752;2023-12-14T05:42:11;101740.00;;;6.00;100.00
23321;BME280;33376;51.306;4.752;2023-12-14T05:44:37;101735.84;;;5.88;100.00
23321;BME280;33376;51.306;4.752;2023-12-14T05:47:03;101742.78;;;5.92;100.00
23321;BME280;33376;51.306;4.752;2023-12-14T05:49:28;101741.81;;;5.96;100.00
23321;BME280;33376;51.306;4.752;2023-12-14T05:51:53;101761.25;;;5.89;100.00
23321;BME280;33376;51.306;4.752;2023-12-14T05:54:19;101761.19;;;5.93;100.00
23321;BME280;33376;51.306;4.752;2023-12-14T05:56:44;101762.94;;;5.93;100.00
23321;BME280;33376;51.306;4.752;2023-12-14T05:59:09;101755.88;;;5.97;100.00
23321;BME280;33376;51.306;4.752;2023-12-14T06:01:34;101759.63;;;5.85;100.00
23321;BME280;33376;51.306;4.752;2023-12-14T06:04:00;101769.97;;;5.92;100.00
23321;BME280;33376;51.306;4.752;2023-12-14T06:06:25;101763.97;;;5.86;100.00
23321;BME280;33376;51.306;4.752;2023-12-14T06:08:50;101781.41;;;5.91;100.00
23321;BME280;33376;51.306;4.752;2023-12-14T06:11:15;101777.13;;;5.86;100.00
23321;BME280;33376;51.306;4.752;2023-12-14T06:13:41;101787.59;;;5.89;100.00
23321;BME280;33376;51.306;4.752;2023-12-14T06:16:06;101790.97;;;5.95;100.00
23321;BME280;33376;51.306;4.752;2023-12-14T06:18:37;101798.06;;;5.90;100.00
23321;BME280;33376;51.306;4.752;2023-12-14T06:21:04;101804.34;;;5.85;100.00
23321;BME280;33376;51.306;4.752;2023-12-14T06:23:30;101811.22;;;5.90;100.00
23321;BME280;33376;51.306;4.752;2023-12-14T06:25:55;101817.47;;;5.86;100.00
23321;BME280;33376;51.306;4.752;2023-12-14T06:28:20;101832.25;;;5.93;100.00
23321;BME280;33376;51.306;4.752;2023-12-14T06:30:46;101829.72;;;5.87;100.00
23321;BME280;33376;51.306;4.752;2023-12-14T06:33:11;101843.78;;;5.86;100.00
23321;BME280;33376;51.306;4.752;2023-12-14T06:35:36;101849.97;;;5.85;100.00
23321;BME280;33376;51.306;4.752;2023-12-14T06:38:02;101850.69;;;5.93;100.00
23321;BME280;33376;51.306;4.752;2023-12-14T06:40:27;101857.50;;;6.02;100.00
23321;BME280;33376;51.306;4.752;2023-12-14T06:42:52;101870.78;;;5.97;100.00
23321;BME280;33376;51.306;4.752;2023-12-14T06:45:17;101877.69;;;6.02;100.00
23321;BME280;33376;51.306;4.752;2023-12-14T06:47:43;101879.63;;;5.92;100.00
23321;BME280;33376;51.306;4.752;2023-12-14T06:50:09;101888.47;;;5.89;100.00
23321;BME280;33376;51.306;4.752;2023-12-14T06:52:35;101880.56;;;5.89;100.00
23321;BME280;33376;51.306;4.752;2023-12-14T06:55:00;101892.03;;;5.87;100.00
23321;BME280;33376;51.306;4.752;2023-12-14T06:57:25;101897.28;;;5.88;100.00
23321;BME280;33376;51.306;4.752;2023-12-14T06:59:51;101895.56;;;5.84;100.00
23321;BME280;33376;51.306;4.752;2023-12-14T07:02:16;101892.47;;;6.09;100.00
23321;BME280;33376;51.306;4.752;2023-12-14T07:04:42;101901.38;;;6.03;100.00
23321;BME280;33376;51.306;4.752;2023-12-14T07:07:08;101899.88;;;5.90;100.00
23321;BME280;33376;51.306;4.752;2023-12-14T07:09:34;101911.97;;;5.98;100.00
23321;BME280;33376;51.306;4.752;2023-12-14T07:12:00;101913.94;;;5.87;100.00
23321;BME280;33376;51.306;4.752;2023-12-14T07:14:27;101912.44;;;5.71;100.00
23321;BME280;33376;51.306;4.752;2023-12-14T07:16:52;101927.31;;;5.74;100.00
23321;BME280;33376;51.306;4.752;2023-12-14T07:19:18;101935.09;;;5.80;100.00
23321;BME280;33376;51.306;4.752;2023-12-14T07:21:43;101935.09;;;5.83;100.00
23321;BME280;33376;51.306;4.752;2023-12-14T07:24:08;101937.81;;;5.75;100.00
23321;BME280;33376;51.306;4.752;2023-12-14T07:26:33;101936.72;;;5.90;100.00
23321;BME280;33376;51.306;4.752;2023-12-14T07:28:59;101950.91;;;5.80;100.00
23321;BME280;33376;51.306;4.752;2023-12-14T07:31:24;101945.59;;;5.81;100.00
23321;BME280;33376;51.306;4.752;2023-12-14T07:33:49;101946.22;;;5.97;100.00
23321;BME280;33376;51.306;4.752;2023-12-14T07:36:14;101949.53;;;6.08;100.00
23321;BME280;33376;51.306;4.752;2023-12-14T07:38:40;101950.22;;;5.69;100.00
23321;BME280;33376;51.306;4.752;2023-12-14T07:41:05;101946.03;;;5.57;100.00
23321;BME280;33376;51.306;4.752;2023-12-14T07:43:30;101945.34;;;5.45;100.00
23321;BME280;33376;51.306;4.752;2023-12-14T07:45:56;101948.88;;;5.45;100.00
23321;BME280;33376;51.306;4.752;2023-12-14T07:48:21;101955.09;;;5.38;100.00
23321;BME280;33376;51.306;4.752;2023-12-14T07:50:46;101949.22;;;5.23;100.00
23321;BME280;33376;51.306;4.752;2023-12-14T07:53:13;101959.94;;;5.09;100.00
23321;BME280;33376;51.306;4.752;2023-12-14T07:55:39;101965.13;;;5.12;100.00
23321;BME280;33376;51.306;4.752;2023-12-14T07:58:04;101970.59;;;5.00;100.00
23321;BME280;33376;51.306;4.752;2023-12-14T08:00:29;101978.66;;;4.88;100.00
23321;BME280;33376;51.306;4.752;2023-12-14T08:02:54;101979.44;;;4.93;100.00
23321;BME280;33376;51.306;4.752;2023-12-14T08:05:20;101976.78;;;4.95;100.00
23321;BME280;33376;51.306;4.752;2023-12-14T08:07:45;101987.41;;;4.87;100.00
23321;BME280;33376;51.306;4.752;2023-12-14T08:10:10;101989.13;;;4.90;100.00
23321;BME280;33376;51.306;4.752;2023-12-14T08:12:36;101994.31;;;4.94;100.00
23321;BME280;33376;51.306;4.752;2023-12-14T08:15:01;101982.22;;;4.83;100.00
23321;BME280;33376;51.306;4.752;2023-12-14T08:17:26;101991.16;;;4.68;100.00
23321;BME280;33376;51.306;4.752;2023-12-14T08:19:53;101979.94;;;4.54;100.00
23321;BME280;33376;51.306;4.752;2023-12-14T08:22:18;101991.09;;;4.71;100.00
23321;BME280;33376;51.306;4.752;2023-12-14T08:24:43;101993.81;;;4.65;100.00
23321;BME280;33376;51.306;4.752;2023-12-14T08:27:09;102005.16;;;4.69;100.00
23321;BME280;33376;51.306;4.752;2023-12-14T08:29:34;102005.69;;;4.95;100.00
23321;BME280;33376;51.306;4.752;2023-12-14T08:31:59;102009.31;;;4.86;100.00
23321;BME280;33376;51.306;4.752;2023-12-14T08:34:25;102016.06;;;5.05;100.00
23321;BME280;33376;51.306;4.752;2023-12-14T08:36:50;102022.41;;;4.89;100.00
23321;BME280;33376;51.306;4.752;2023-12-14T08:39:16;102037.50;;;4.75;100.00
23321;BME280;33376;51.306;4.752;2023-12-14T08:41:41;102040.03;;;4.81;100.00
23321;BME280;33376;51.306;4.752;2023-12-14T08:44:07;102050.53;;;4.83;100.00
23321;BME280;33376;51.306;4.752;2023-12-14T08:46:39;102059.38;;;4.73;100.00
23321;BME280;33376;51.306;4.752;2023-12-14T08:49:05;102058.53;;;4.69;100.00
23321;BME280;33376;51.306;4.752;2023-12-14T08:51:30;102074.25;;;4.77;100.00
23321;BME280;33376;51.306;4.752;2023-12-14T08:53:55;102075.25;;;4.65;100.00
23321;BME280;33376;51.306;4.752;2023-12-14T08:56:20;102089.34;;;4.57;100.00
23321;BME280;33376;51.306;4.752;2023-12-14T08:58:46;102088.19;;;4.83;100.00
23321;BME280;33376;51.306;4.752;2023-12-14T09:01:11;102103.84;;;4.91;100.00
23321;BME280;33376;51.306;4.752;2023-12-14T09:03:36;102106.69;;;4.73;100.00
23321;BME280;33376;51.306;4.752;2023-12-14T09:06:01;102107.31;;;4.94;100.00
23321;BME280;33376;51.306;4.752;2023-12-14T09:08:30;102115.28;;;4.90;100.00
23321;BME280;33376;51.306;4.752;2023-12-14T09:10:55;102126.59;;;4.93;100.00
23321;BME280;33376;51.306;4.752;2023-12-14T09:13:21;102124.63;;;5.13;100.00
23321;BME280;33376;51.306;4.752;2023-12-14T09:15:46;102141.09;;;5.27;100.00
23321;BME280;33376;51.306;4.752;2023-12-14T09:18:11;102146.16;;;5.44;100.00
23321;BME280;33376;51.306;4.752;2023-12-14T09:20:36;102153.91;;;5.53;100.00
23321;BME280;33376;51.306;4.752;2023-12-14T09:23:02;102164.47;;;5.50;100.00
23321;BME280;33376;51.306;4.752;2023-12-14T09:25:28;102181.81;;;5.64;100.00
23321;BME280;33376;51.306;4.752;2023-12-14T09:27:53;102208.88;;;5.74;100.00
23321;BME280;33376;51.306;4.752;2023-12-14T09:30:18;102207.13;;;5.76;100.00
23321;BME280;33376;51.306;4.752;2023-12-14T09:32:44;102216.63;;;5.87;100.00
23321;BME280;33376;51.306;4.752;2023-12-14T09:35:09;102230.69;;;5.85;100.00
23321;BME280;33376;51.306;4.752;2023-12-14T09:37:34;102233.50;;;5.68;100.00
23321;BME280;33376;51.306;4.752;2023-12-14T09:40:00;102240.56;;;5.68;100.00
23321;BME280;33376;51.306;4.752;2023-12-14T09:42:26;102256.44;;;5.57;100.00
23321;BME280;33376;51.306;4.752;2023-12-14T09:44:52;102253.78;;;5.60;100.00
23321;BME280;33376;51.306;4.752;2023-12-14T09:47:17;102266.84;;;5.66;100.00
23321;BME280;33376;51.306;4.752;2023-12-14T09:49:43;102279.19;;;5.64;100.00
23321;BME280;33376;51.306;4.752;2023-12-14T09:52:10;102271.09;;;5.79;100.00
23321;BME280;33376;51.306;4.752;2023-12-14T09:54:35;102286.00;;;5.83;100.00
23321;BME280;33376;51.306;4.752;2023-12-14T09:57:00;102284.94;;;5.98;100.00
23321;BME280;33376;51.306;4.752;2023-12-14T09:59:26;102284.06;;;5.97;100.00
23321;BME280;33376;51.306;4.752;2023-12-14T10:01:51;102271.78;;;5.97;100.00
23321;BME280;33376;51.306;4.752;2023-12-14T10:04:17;102294.50;;;6.04;100.00
23321;BME280;33376;51.306;4.752;2023-12-14T10:06:44;102286.72;;;5.94;100.00
23321;BME280;33376;51.306;4.752;2023-12-14T10:09:10;102300.59;;;6.07;100.00
23321;BME280;33376;51.306;4.752;2023-12-14T10:11:39;102304.00;;;6.15;100.00
23321;BME280;33376;51.306;4.752;2023-12-14T10:14:21;102309.22;;;6.18;100.00
23321;BME280;33376;51.306;4.752;2023-12-14T10:16:50;102310.09;;;6.20;100.00
23321;BME280;33376;51.306;4.752;2023-12-14T10:19:16;102320.03;;;5.97;100.00
23321;BME280;33376;51.306;4.752;2023-12-14T10:21:42;102337.47;;;6.06;100.00
23321;BME280;33376;51.306;4.752;2023-12-14T10:24:08;102321.91;;;5.86;100.00
23321;BME280;33376;51.306;4.752;2023-12-14T10:26:33;102316.56;;;5.95;100.00
23321;BME280;33376;51.306;4.752;2023-12-14T10:28:58;102326.03;;;6.08;100.00
23321;BME280;33376;51.306;4.752;2023-12-14T10:31:24;102329.66;;;6.01;100.00
23321;BME280;33376;51.306;4.752;2023-12-14T10:33:51;102333.13;;;6.02;100.00
23321;BME280;33376;51.306;4.752;2023-12-14T10:36:17;102330.53;;;5.98;100.00
23321;BME280;33376;51.306;4.752;2023-12-14T10:38:43;102332.38;;;5.93;100.00
23321;BME280;33376;51.306;4.752;2023-12-14T10:41:11;102337.59;;;5.98;100.00
23321;BME280;33376;51.306;4.752;2023-12-14T10:43:38;102337.41;;;6.12;100.00
23321;BME280;33376;51.306;4.752;2023-12-14T10:46:05;102323.47;;;6.04;100.00
23321;BME280;33376;51.306;4.752;2023-12-14T10:48:31;102334.06;;;5.99;100.00
23321;BME280;33376;51.306;4.752;2023-12-14T10:50:56;102338.88;;;6.32;100.00
23321;BME280;33376;51.306;4.752;2023-12-14T10:53:25;102351.31;;;6.23;100.00
23321;BME280;33376;51.306;4.752;2023-12-14T10:55:50;102362.69;;;6.26;100.00
23321;BME280;33376;51.306;4.752;2023-12-14T10:58:16;102356.72;;;6.11;100.00
23321;BME280;33376;51.306;4.752;2023-12-14T11:00:42;102361.28;;;5.98;100.00
23321;BME280;33376;51.306;4.752;2023-12-14T11:03:07;102370.00;;;6.00;100.00
23321;BME280;33376;51.306;4.752;2023-12-14T11:05:33;102354.22;;;6.03;100.00
23321;BME280;33376;51.306;4.752;2023-12-14T11:08:02;102350.53;;;6.15;100.00
23321;BME280;33376;51.306;4.752;2023-12-14T11:10:52;102362.69;;;6.25;100.00
23321;BME280;33376;51.306;4.752;2023-12-14T11:13:20;102361.00;;;6.21;100.00
23321;BME280;33376;51.306;4.752;2023-12-14T11:15:50;102373.34;;;6.17;100.00
23321;BME280;33376;51.306;4.752;2023-12-14T11:23:09;102362.59;;;6.32;100.00
23321;BME280;33376;51.306;4.752;2023-12-14T11:25:35;102372.31;;;6.30;100.00
23321;BME280;33376;51.306;4.752;2023-12-14T11:28:03;102372.97;;;6.44;100.00
23321;BME280;33376;51.306;4.752;2023-12-14T11:30:28;102374.56;;;6.54;100.00
23321;BME280;33376;51.306;4.752;2023-12-14T11:32:53;102378.06;;;6.56;100.00
23321;BME280;33376;51.306;4.752;2023-12-14T11:35:18;102376.19;;;6.66;100.00
23321;BME280;33376;51.306;4.752;2023-12-14T11:37:44;102371.00;;;6.60;100.00
23321;BME280;33376;51.306;4.752;2023-12-14T11:40:09;102370.78;;;6.76;100.00
23321;BME280;33376;51.306;4.752;2023-12-14T11:42:35;102373.09;;;6.94;100.00
23321;BME280;33376;51.306;4.752;2023-12-14T11:45:00;102365.53;;;6.72;100.00
23321;BME280;33376;51.306;4.752;2023-12-14T11:47:26;102355.13;;;6.64;100.00
23321;BME280;33376;51.306;4.752;2023-12-14T11:49:51;102372.44;;;6.80;100.00
23321;BME280;33376;51.306;4.752;2023-12-14T11:52:17;102375.28;;;6.68;100.00
23321;BME280;33376;51.306;4.752;2023-12-14T11:54:42;102380.28;;;6.85;100.00
23321;BME280;33376;51.306;4.752;2023-12-14T11:57:07;102390.72;;;6.91;100.00
23321;BME280;33376;51.306;4.752;2023-12-14T11:59:34;102399.44;;;6.97;100.00
23321;BME280;33376;51.306;4.752;2023-12-14T12:02:00;102392.47;;;6.93;100.00
23321;BME280;33376;51.306;4.752;2023-12-14T12:04:26;102413.41;;;7.04;100.00
23321;BME280;33376;51.306;4.752;2023-12-14T12:06:58;102418.66;;;7.04;100.00
23321;BME280;33376;51.306;4.752;2023-12-14T12:09:34;102402.78;;;7.08;100.00
23321;BME280;33376;51.306;4.752;2023-12-14T12:11:59;102413.16;;;7.20;100.00
23321;BME280;33376;51.306;4.752;2023-12-14T12:14:24;102400.19;;;7.05;100.00
23321;BME280;33376;51.306;4.752;2023-12-14T12:16:50;102392.94;;;7.19;100.00
23321;BME280;33376;51.306;4.752;2023-12-14T12:19:18;102389.28;;;7.26;100.00
23321;BME280;33376;51.306;4.752;2023-12-14T12:21:43;102402.69;;;7.14;100.00
23321;BME280;33376;51.306;4.752;2023-12-14T12:24:08;102406.69;;;7.38;100.00
23321;BME280;33376;51.306;4.752;2023-12-14T12:26:33;102410.75;;;7.57;100.00
23321;BME280;33376;51.306;4.752;2023-12-14T12:28:59;102399.59;;;7.43;100.00
23321;BME280;33376;51.306;4.752;2023-12-14T12:31:24;102402.91;;;7.54;100.00
23321;BME280;33376;51.306;4.752;2023-12-14T12:33:49;102418.91;;;7.43;100.00
23321;BME280;33376;51.306;4.752;2023-12-14T12:36:14;102416.41;;;7.36;100.00
23321;BME280;33376;51.306;4.752;2023-12-14T12:38:40;102420.94;;;7.78;100.00
23321;BME280;33376;51.306;4.752;2023-12-14T12:41:05;102412.59;;;7.52;100.00
23321;BME280;33376;51.306;4.752;2023-12-14T12:43:31;102407.47;;;7.44;100.00
23321;BME280;33376;51.306;4.752;2023-12-14T12:45:56;102421.88;;;7.24;100.00